Terminal Aerodrome Forecast
Issued by NWS

Current Version | Previous Version | Graphics & Text | Print | Product List | Glossary On
Versions: 1 2 3 4 5 6 7 8 9 10 11 12 13
000
FTUS41 KRNK 222336
TAFLWB
TAF
KLWB 222336Z 2300/2324 25005KT P6SM SCT045 OVC070
      TEMPO 2300/2302 BKN045
     FM230200 27008G16KT P6SM BKN035
     FM230400 28007KT P6SM OVC030
     FM231400 29012G22KT P6SM SCT035=

USA.gov is the U.S. government's official web portal to all federal, state and local government web resources and services.